sensor_id;sensor_type;location;lat;lon;timestamp;pressure;altitude;pressure_sealevel;temperature;humidity
53719;BME280;39616;48.872;9.390;2023-10-19T00:01:19;96744.94;;;9.68;100.00
53719;BME280;39616;48.872;9.390;2023-10-19T00:03:53;96746.84;;;9.68;100.00
53719;BME280;39616;48.872;9.390;2023-10-19T00:06:26;96741.56;;;9.72;100.00
53719;BME280;39616;48.872;9.390;2023-10-19T00:08:56;96735.63;;;9.78;100.00
53719;BME280;39616;48.872;9.390;2023-10-19T00:11:26;96721.78;;;9.80;100.00
53719;BME280;39616;48.872;9.390;2023-10-19T00:13:57;96730.81;;;9.84;100.00
53719;BME280;39616;48.872;9.390;2023-10-19T00:16:28;96731.88;;;9.91;100.00
53719;BME280;39616;48.872;9.390;2023-10-19T00:19:05;96723.41;;;9.93;100.00
53719;BME280;39616;48.872;9.390;2023-10-19T00:21:36;96726.25;;;9.97;100.00
53719;BME280;39616;48.872;9.390;2023-10-19T00:24:21;96717.94;;;10.02;100.00
53719;BME280;39616;48.872;9.390;2023-10-19T00:26:53;96726.00;;;10.10;100.00
53719;BME280;39616;48.872;9.390;2023-10-19T00:29:25;96725.19;;;10.10;100.00
53719;BME280;39616;48.872;9.390;2023-10-19T00:32:02;96720.09;;;10.08;100.00
53719;BME280;39616;48.872;9.390;2023-10-19T00:34:33;96718.53;;;10.07;100.00
53719;BME280;39616;48.872;9.390;2023-10-19T00:37:04;96717.34;;;10.17;100.00
53719;BME280;39616;48.872;9.390;2023-10-19T00:39:37;96723.06;;;10.36;100.00
53719;BME280;39616;48.872;9.390;2023-10-19T00:42:13;96710.41;;;10.61;100.00
53719;BME280;39616;48.872;9.390;2023-10-19T00:44:45;96704.44;;;10.80;100.00
53719;BME280;39616;48.872;9.390;2023-10-19T00:47:20;96702.88;;;10.92;100.00
53719;BME280;39616;48.872;9.390;2023-10-19T00:49:53;96703.53;;;11.01;100.00
53719;BME280;39616;48.872;9.390;2023-10-19T00:52:25;96712.03;;;11.11;100.00
53719;BME280;39616;48.872;9.390;2023-10-19T00:54:55;96699.59;;;11.23;100.00
53719;BME280;39616;48.872;9.390;2023-10-19T00:57:28;96701.63;;;11.26;100.00
53719;BME280;39616;48.872;9.390;2023-10-19T01:00:04;96693.72;;;11.33;100.00
53719;BME280;39616;48.872;9.390;2023-10-19T01:02:51;96689.53;;;11.35;100.00
53719;BME280;39616;48.872;9.390;2023-10-19T01:05:29;96686.38;;;11.46;100.00
53719;BME280;39616;48.872;9.390;2023-10-19T01:08:06;96678.97;;;11.58;100.00
53719;BME280;39616;48.872;9.390;2023-10-19T01:10:56;96680.97;;;11.74;100.00
53719;BME280;39616;48.872;9.390;2023-10-19T01:13:27;96665.34;;;11.83;100.00
53719;BME280;39616;48.872;9.390;2023-10-19T01:15:58;96659.91;;;11.83;100.00
53719;BME280;39616;48.872;9.390;2023-10-19T01:18:29;96671.91;;;11.82;100.00
53719;BME280;39616;48.872;9.390;2023-10-19T01:21:02;96655.63;;;11.82;100.00
53719;BME280;39616;48.872;9.390;2023-10-19T01:23:35;96643.38;;;11.88;100.00
53719;BME280;39616;48.872;9.390;2023-10-19T01:26:07;96645.53;;;11.82;100.00
53719;BME280;39616;48.872;9.390;2023-10-19T01:28:41;96637.84;;;11.84;100.00
53719;BME280;39616;48.872;9.390;2023-10-19T01:31:12;96641.22;;;11.94;100.00
53719;BME280;39616;48.872;9.390;2023-10-19T01:34:12;96634.59;;;12.07;100.00
53719;BME280;39616;48.872;9.390;2023-10-19T01:36:44;96630.69;;;12.20;100.00
53719;BME280;39616;48.872;9.390;2023-10-19T01:39:14;96620.28;;;12.38;100.00
53719;BME280;39616;48.872;9.390;2023-10-19T01:41:45;96619.31;;;12.46;100.00
53719;BME280;39616;48.872;9.390;2023-10-19T01:44:15;96606.59;;;12.50;100.00
53719;BME280;39616;48.872;9.390;2023-10-19T01:46:46;96607.94;;;12.56;100.00
53719;BME280;39616;48.872;9.390;2023-10-19T01:49:16;96602.69;;;12.64;100.00
53719;BME280;39616;48.872;9.390;2023-10-19T01:51:59;96593.19;;;12.73;100.00
53719;BME280;39616;48.872;9.390;2023-10-19T01:54:30;96602.22;;;12.77;100.00
53719;BME280;39616;48.872;9.390;2023-10-19T01:57:01;96594.16;;;12.65;100.00
53719;BME280;39616;48.872;9.390;2023-10-19T01:59:31;96595.03;;;12.69;100.00
53719;BME280;39616;48.872;9.390;2023-10-19T02:02:04;96600.03;;;12.83;100.00
53719;BME280;39616;48.872;9.390;2023-10-19T02:04:34;96602.47;;;12.88;100.00
53719;BME280;39616;48.872;9.390;2023-10-19T02:07:05;96595.03;;;12.85;100.00
53719;BME280;39616;48.872;9.390;2023-10-19T02:09:42;96590.63;;;12.80;100.00
53719;BME280;39616;48.872;9.390;2023-10-19T02:12:12;96593.34;;;12.80;100.00
53719;BME280;39616;48.872;9.390;2023-10-19T02:14:43;96595.72;;;12.82;100.00
53719;BME280;39616;48.872;9.390;2023-10-19T02:17:13;96587.03;;;12.76;100.00
53719;BME280;39616;48.872;9.390;2023-10-19T02:19:45;96588.28;;;12.79;100.00
53719;BME280;39616;48.872;9.390;2023-10-19T02:22:15;96587.56;;;12.66;100.00
53719;BME280;39616;48.872;9.390;2023-10-19T02:24:47;96583.72;;;12.67;100.00
53719;BME280;39616;48.872;9.390;2023-10-19T02:27:17;96577.31;;;12.60;100.00
53719;BME280;39616;48.872;9.390;2023-10-19T02:29:47;96574.69;;;12.47;100.00
53719;BME280;39616;48.872;9.390;2023-10-19T02:32:18;96577.13;;;12.37;100.00
53719;BME280;39616;48.872;9.390;2023-10-19T02:34:49;96579.66;;;12.29;100.00
53719;BME280;39616;48.872;9.390;2023-10-19T02:37:19;96577.75;;;12.30;100.00
53719;BME280;39616;48.872;9.390;2023-10-19T02:39:49;96572.06;;;12.19;100.00
53719;BME280;39616;48.872;9.390;2023-10-19T02:42:20;96578.09;;;12.13;100.00
53719;BME280;39616;48.872;9.390;2023-10-19T02:44:52;96585.78;;;12.11;100.00
53719;BME280;39616;48.872;9.390;2023-10-19T02:47:22;96577.63;;;12.11;100.00
53719;BME280;39616;48.872;9.390;2023-10-19T02:49:53;96568.59;;;12.06;100.00
53719;BME280;39616;48.872;9.390;2023-10-19T02:52:26;96577.53;;;12.07;100.00
53719;BME280;39616;48.872;9.390;2023-10-19T02:54:57;96574.81;;;12.07;100.00
53719;BME280;39616;48.872;9.390;2023-10-19T02:57:30;96563.25;;;12.10;100.00
53719;BME280;39616;48.872;9.390;2023-10-19T03:00:01;96569.75;;;12.05;100.00
53719;BME280;39616;48.872;9.390;2023-10-19T03:02:38;96567.72;;;12.02;100.00
53719;BME280;39616;48.872;9.390;2023-10-19T03:05:08;96570.81;;;12.01;100.00
53719;BME280;39616;48.872;9.390;2023-10-19T03:07:44;96563.78;;;12.00;100.00
53719;BME280;39616;48.872;9.390;2023-10-19T03:10:15;96568.41;;;11.99;100.00
53719;BME280;39616;48.872;9.390;2023-10-19T03:13:04;96562.69;;;11.89;100.00
53719;BME280;39616;48.872;9.390;2023-10-19T03:15:36;96567.00;;;11.90;100.00
53719;BME280;39616;48.872;9.390;2023-10-19T03:18:09;96563.19;;;11.78;100.00
53719;BME280;39616;48.872;9.390;2023-10-19T03:20:40;96561.84;;;11.72;100.00
53719;BME280;39616;48.872;9.390;2023-10-19T03:23:11;96566.97;;;11.61;100.00
53719;BME280;39616;48.872;9.390;2023-10-19T03:25:44;96562.59;;;11.57;100.00
53719;BME280;39616;48.872;9.390;2023-10-19T03:28:19;96551.53;;;11.50;100.00
53719;BME280;39616;48.872;9.390;2023-10-19T03:30:49;96553.00;;;11.47;100.00
53719;BME280;39616;48.872;9.390;2023-10-19T03:33:19;96542.31;;;11.39;100.00
53719;BME280;39616;48.872;9.390;2023-10-19T03:35:50;96539.72;;;11.30;100.00
53719;BME280;39616;48.872;9.390;2023-10-19T03:38:22;96542.13;;;11.19;100.00
53719;BME280;39616;48.872;9.390;2023-10-19T03:40:52;96542.38;;;11.14;100.00
53719;BME280;39616;48.872;9.390;2023-10-19T03:43:29;96538.75;;;11.10;100.00
53719;BME280;39616;48.872;9.390;2023-10-19T03:46:02;96535.50;;;11.04;100.00
53719;BME280;39616;48.872;9.390;2023-10-19T03:48:36;96532.25;;;10.99;100.00
53719;BME280;39616;48.872;9.390;2023-10-19T03:51:09;96530.19;;;10.96;100.00
53719;BME280;39616;48.872;9.390;2023-10-19T03:53:42;96531.44;;;10.98;100.00
53719;BME280;39616;48.872;9.390;2023-10-19T03:56:18;96526.66;;;11.07;100.00
53719;BME280;39616;48.872;9.390;2023-10-19T03:58:48;96528.94;;;11.05;100.00
53719;BME280;39616;48.872;9.390;2023-10-19T04:01:20;96528.84;;;11.02;100.00
53719;BME280;39616;48.872;9.390;2023-10-19T04:03:51;96531.44;;;10.98;100.00
53719;BME280;39616;48.872;9.390;2023-10-19T04:06:25;96522.75;;;10.93;100.00
53719;BME280;39616;48.872;9.390;2023-10-19T04:08:57;96511.91;;;10.93;100.00
53719;BME280;39616;48.872;9.390;2023-10-19T04:11:29;96514.06;;;10.87;100.00
53719;BME280;39616;48.872;9.390;2023-10-19T04:14:03;96510.78;;;10.81;100.00
53719;BME280;39616;48.872;9.390;2023-10-19T04:16:33;96508.31;;;10.76;100.00
53719;BME280;39616;48.872;9.390;2023-10-19T04:19:07;96497.38;;;10.73;100.00
53719;BME280;39616;48.872;9.390;2023-10-19T04:21:39;96490.16;;;10.64;100.00
53719;BME280;39616;48.872;9.390;2023-10-19T04:24:10;96483.84;;;10.60;100.00
53719;BME280;39616;48.872;9.390;2023-10-19T04:26:40;96484.53;;;10.57;100.00
53719;BME280;39616;48.872;9.390;2023-10-19T04:29:12;96482.50;;;10.54;100.00
53719;BME280;39616;48.872;9.390;2023-10-19T04:31:47;96476.19;;;10.50;100.00
53719;BME280;39616;48.872;9.390;2023-10-19T04:34:20;96483.53;;;10.50;100.00
53719;BME280;39616;48.872;9.390;2023-10-19T04:36:51;96474.81;;;10.44;100.00
53719;BME280;39616;48.872;9.390;2023-10-19T04:39:22;96476.50;;;10.49;100.00
53719;BME280;39616;48.872;9.390;2023-10-19T04:41:53;96473.25;;;10.43;100.00
53719;BME280;39616;48.872;9.390;2023-10-19T04:44:23;96464.66;;;10.41;100.00
53719;BME280;39616;48.872;9.390;2023-10-19T04:46:53;96464.44;;;10.46;100.00
53719;BME280;39616;48.872;9.390;2023-10-19T04:49:23;96458.00;;;10.51;100.00
53719;BME280;39616;48.872;9.390;2023-10-19T04:51:54;96467.47;;;10.57;100.00
53719;BME280;39616;48.872;9.390;2023-10-19T04:54:24;96463.28;;;10.59;100.00
53719;BME280;39616;48.872;9.390;2023-10-19T04:56:54;96463.50;;;10.67;100.00
53719;BME280;39616;48.872;9.390;2023-10-19T04:59:25;96456.81;;;10.76;100.00
53719;BME280;39616;48.872;9.390;2023-10-19T05:01:56;96467.41;;;10.81;100.00
53719;BME280;39616;48.872;9.390;2023-10-19T05:04:27;96451.81;;;10.91;100.00
53719;BME280;39616;48.872;9.390;2023-10-19T05:06:57;96453.94;;;10.97;100.00
53719;BME280;39616;48.872;9.390;2023-10-19T05:09:28;96450.53;;;11.00;100.00
53719;BME280;39616;48.872;9.390;2023-10-19T05:11:58;96449.59;;;11.08;100.00
53719;BME280;39616;48.872;9.390;2023-10-19T05:14:28;96455.03;;;11.08;100.00
53719;BME280;39616;48.872;9.390;2023-10-19T05:16:59;96450.50;;;11.12;100.00
53719;BME280;39616;48.872;9.390;2023-10-19T05:19:29;96450.25;;;11.18;100.00
53719;BME280;39616;48.872;9.390;2023-10-19T05:22:00;96455.75;;;11.21;100.00
53719;BME280;39616;48.872;9.390;2023-10-19T05:24:31;96459.03;;;11.27;100.00
53719;BME280;39616;48.872;9.390;2023-10-19T05:27:02;96454.28;;;11.24;100.00
53719;BME280;39616;48.872;9.390;2023-10-19T05:29:33;96460.25;;;11.29;100.00
53719;BME280;39616;48.872;9.390;2023-10-19T05:32:03;96461.13;;;11.33;100.00
53719;BME280;39616;48.872;9.390;2023-10-19T05:34:34;96464.72;;;11.37;100.00
53719;BME280;39616;48.872;9.390;2023-10-19T05:37:05;96458.28;;;11.42;100.00
53719;BME280;39616;48.872;9.390;2023-10-19T05:39:36;96468.47;;;11.33;100.00
53719;BME280;39616;48.872;9.390;2023-10-19T05:42:06;96459.81;;;11.27;100.00
53719;BME280;39616;48.872;9.390;2023-10-19T05:44:36;96462.16;;;11.29;100.00
53719;BME280;39616;48.872;9.390;2023-10-19T05:47:07;96470.78;;;11.31;100.00
53719;BME280;39616;48.872;9.390;2023-10-19T05:49:37;96470.41;;;11.32;100.00
53719;BME280;39616;48.872;9.390;2023-10-19T05:52:08;96473.59;;;11.34;100.00
53719;BME280;39616;48.872;9.390;2023-10-19T05:54:38;96475.47;;;11.34;100.00
53719;BME280;39616;48.872;9.390;2023-10-19T05:57:08;96472.69;;;11.30;100.00
53719;BME280;39616;48.872;9.390;2023-10-19T05:59:39;96481.66;;;11.19;100.00
53719;BME280;39616;48.872;9.390;2023-10-19T06:02:10;96491.09;;;11.09;100.00
53719;BME280;39616;48.872;9.390;2023-10-19T06:04:41;96486.34;;;11.06;100.00
53719;BME280;39616;48.872;9.390;2023-10-19T06:07:11;96482.16;;;11.08;100.00
53719;BME280;39616;48.872;9.390;2023-10-19T06:09:41;96485.97;;;11.07;100.00
53719;BME280;39616;48.872;9.390;2023-10-19T06:12:12;96488.59;;;11.04;100.00
53719;BME280;39616;48.872;9.390;2023-10-19T06:14:42;96488.94;;;11.02;100.00
53719;BME280;39616;48.872;9.390;2023-10-19T06:17:13;96480.81;;;11.02;100.00
53719;BME280;39616;48.872;9.390;2023-10-19T06:19:49;96483.41;;;10.99;100.00
53719;BME280;39616;48.872;9.390;2023-10-19T06:22:19;96478.78;;;10.99;100.00
53719;BME280;39616;48.872;9.390;2023-10-19T06:24:49;96487.03;;;11.03;100.00
53719;BME280;39616;48.872;9.390;2023-10-19T06:27:20;96489.06;;;11.06;100.00
53719;BME280;39616;48.872;9.390;2023-10-19T06:29:53;96495.94;;;11.03;100.00
53719;BME280;39616;48.872;9.390;2023-10-19T06:32:24;96505.53;;;11.01;100.00
53719;BME280;39616;48.872;9.390;2023-10-19T06:34:54;96504.66;;;11.09;100.00
53719;BME280;39616;48.872;9.390;2023-10-19T06:37:26;96500.41;;;11.24;100.00
53719;BME280;39616;48.872;9.390;2023-10-19T06:39:56;96506.34;;;11.42;100.00
53719;BME280;39616;48.872;9.390;2023-10-19T06:42:27;96502.22;;;11.48;100.00
53719;BME280;39616;48.872;9.390;2023-10-19T06:44:58;96497.44;;;11.57;100.00
53719;BME280;39616;48.872;9.390;2023-10-19T06:47:28;96489.91;;;11.66;100.00
53719;BME280;39616;48.872;9.390;2023-10-19T06:49:59;96495.03;;;11.68;100.00
53719;BME280;39616;48.872;9.390;2023-10-19T06:52:30;96487.66;;;11.68;100.00
53719;BME280;39616;48.872;9.390;2023-10-19T06:55:07;96490.56;;;11.75;100.00
53719;BME280;39616;48.872;9.390;2023-10-19T06:57:44;96491.25;;;11.72;100.00
53719;BME280;39616;48.872;9.390;2023-10-19T07:00:16;96489.88;;;11.78;100.00
53719;BME280;39616;48.872;9.390;2023-10-19T07:02:50;96498.22;;;11.85;100.00
53719;BME280;39616;48.872;9.390;2023-10-19T07:05:22;96493.59;;;11.86;100.00
53719;BME280;39616;48.872;9.390;2023-10-19T07:07:53;96484.31;;;11.87;100.00
53719;BME280;39616;48.872;9.390;2023-10-19T07:10:24;96491.38;;;11.92;100.00
53719;BME280;39616;48.872;9.390;2023-10-19T07:12:56;96489.72;;;12.03;100.00
53719;BME280;39616;48.872;9.390;2023-10-19T07:15:27;96486.41;;;12.09;100.00
53719;BME280;39616;48.872;9.390;2023-10-19T07:17:59;96484.47;;;12.10;100.00
53719;BME280;39616;48.872;9.390;2023-10-19T07:20:30;96478.94;;;12.06;100.00
53719;BME280;39616;48.872;9.390;2023-10-19T07:23:05;96470.81;;;12.06;100.00
53719;BME280;39616;48.872;9.390;2023-10-19T07:25:52;96462.31;;;12.08;100.00
53719;BME280;39616;48.872;9.390;2023-10-19T07:28:29;96473.19;;;12.08;100.00
53719;BME280;39616;48.872;9.390;2023-10-19T07:31:01;96468.53;;;12.08;100.00
53719;BME280;39616;48.872;9.390;2023-10-19T07:33:31;96479.81;;;12.11;100.00
53719;BME280;39616;48.872;9.390;2023-10-19T07:36:04;96481.75;;;12.10;100.00
53719;BME280;39616;48.872;9.390;2023-10-19T07:38:38;96477.97;;;12.15;100.00
53719;BME280;39616;48.872;9.390;2023-10-19T07:41:08;96473.16;;;12.24;100.00
53719;BME280;39616;48.872;9.390;2023-10-19T07:43:41;96468.31;;;12.33;100.00
53719;BME280;39616;48.872;9.390;2023-10-19T07:46:13;96470.59;;;12.47;100.00
53719;BME280;39616;48.872;9.390;2023-10-19T07:48:43;96475.50;;;12.57;100.00
53719;BME280;39616;48.872;9.390;2023-10-19T07:51:14;96465.28;;;12.70;100.00
53719;BME280;39616;48.872;9.390;2023-10-19T07:53:44;96462.31;;;12.75;100.00
53719;BME280;39616;48.872;9.390;2023-10-19T07:56:15;96469.53;;;12.87;100.00
53719;BME280;39616;48.872;9.390;2023-10-19T07:58:46;96459.22;;;12.96;100.00
53719;BME280;39616;48.872;9.390;2023-10-19T08:01:16;96456.25;;;13.01;100.00
53719;BME280;39616;48.872;9.390;2023-10-19T08:03:46;96449.50;;;13.14;100.00
53719;BME280;39616;48.872;9.390;2023-10-19T08:06:17;96453.03;;;13.15;100.00
53719;BME280;39616;48.872;9.390;2023-10-19T08:08:47;96452.53;;;13.28;100.00
53719;BME280;39616;48.872;9.390;2023-10-19T08:11:17;96452.03;;;13.42;100.00
53719;BME280;39616;48.872;9.390;2023-10-19T08:13:47;96450.72;;;13.56;100.00
53719;BME280;39616;48.872;9.390;2023-10-19T08:16:19;96449.84;;;13.94;100.00
53719;BME280;39616;48.872;9.390;2023-10-19T08:18:50;96443.44;;;14.32;100.00
53719;BME280;39616;48.872;9.390;2023-10-19T08:21:22;96443.78;;;14.80;100.00
53719;BME280;39616;48.872;9.390;2023-10-19T08:23:53;96444.16;;;15.09;100.00
53719;BME280;39616;48.872;9.390;2023-10-19T08:26:23;96446.56;;;15.14;100.00
53719;BME280;39616;48.872;9.390;2023-10-19T08:28:55;96439.91;;;15.11;100.00
53719;BME280;39616;48.872;9.390;2023-10-19T08:31:25;96442.25;;;15.13;100.00
53719;BME280;39616;48.872;9.390;2023-10-19T08:33:56;96439.25;;;15.21;100.00
53719;BME280;39616;48.872;9.390;2023-10-19T08:36:27;96443.19;;;15.28;100.00
53719;BME280;39616;48.872;9.390;2023-10-19T08:38:58;96443.53;;;15.22;100.00
53719;BME280;39616;48.872;9.390;2023-10-19T08:41:28;96444.94;;;15.43;100.00
53719;BME280;39616;48.872;9.390;2023-10-19T08:43:58;96439.06;;;15.41;100.00
53719;BME280;39616;48.872;9.390;2023-10-19T08:46:30;96442.94;;;15.74;100.00
53719;BME280;39616;48.872;9.390;2023-10-19T08:49:00;96438.91;;;16.01;100.00
53719;BME280;39616;48.872;9.390;2023-10-19T08:51:30;96441.16;;;16.36;100.00
53719;BME280;39616;48.872;9.390;2023-10-19T08:54:01;96447.59;;;16.65;100.00
53719;BME280;39616;48.872;9.390;2023-10-19T08:56:32;96445.28;;;16.71;100.00
53719;BME280;39616;48.872;9.390;2023-10-19T08:59:03;96440.31;;;16.84;100.00
53719;BME280;39616;48.872;9.390;2023-10-19T09:01:37;96443.22;;;17.27;100.00
53719;BME280;39616;48.872;9.390;2023-10-19T09:04:08;96444.03;;;17.24;100.00
53719;BME280;39616;48.872;9.390;2023-10-19T09:06:38;96445.38;;;16.82;100.00
53719;BME280;39616;48.872;9.390;2023-10-19T09:09:12;96446.16;;;16.86;100.00
53719;BME280;39616;48.872;9.390;2023-10-19T09:11:49;96439.06;;;16.74;100.00
53719;BME280;39616;48.872;9.390;2023-10-19T09:14:36;96425.56;;;17.06;100.00
53719;BME280;39616;48.872;9.390;2023-10-19T09:17:09;96429.19;;;17.39;100.00
53719;BME280;39616;48.872;9.390;2023-10-19T09:19:45;96422.59;;;17.58;100.00
53719;BME280;39616;48.872;9.390;2023-10-19T09:22:18;96417.19;;;17.90;100.00
53719;BME280;39616;48.872;9.390;2023-10-19T09:24:49;96418.38;;;18.14;97.10
53719;BME280;39616;48.872;9.390;2023-10-19T09:27:20;96413.97;;;18.88;93.44
53719;BME280;39616;48.872;9.390;2023-10-19T09:29:50;96411.19;;;19.83;86.04
53719;BME280;39616;48.872;9.390;2023-10-19T09:32:23;96418.56;;;19.97;82.64
53719;BME280;39616;48.872;9.390;2023-10-19T09:34:53;96416.78;;;19.69;83.44
53719;BME280;39616;48.872;9.390;2023-10-19T09:37:25;96421.22;;;19.48;83.45
53719;BME280;39616;48.872;9.390;2023-10-19T09:39:56;96423.28;;;19.26;84.74
53719;BME280;39616;48.872;9.390;2023-10-19T09:42:28;96422.91;;;19.14;83.24
53719;BME280;39616;48.872;9.390;2023-10-19T09:44:59;96419.81;;;19.04;85.37
53719;BME280;39616;48.872;9.390;2023-10-19T09:47:38;96416.38;;;18.79;87.51
53719;BME280;39616;48.872;9.390;2023-10-19T09:50:11;96415.63;;;18.50;87.73
53719;BME280;39616;48.872;9.390;2023-10-19T09:52:42;96402.31;;;18.27;89.85
53719;BME280;39616;48.872;9.390;2023-10-19T09:55:25;96400.72;;;18.15;90.81
53719;BME280;39616;48.872;9.390;2023-10-19T09:58:02;96398.41;;;18.21;94.68
53719;BME280;39616;48.872;9.390;2023-10-19T10:00:37;96398.41;;;18.21;94.31
53719;BME280;39616;48.872;9.390;2023-10-19T10:03:44;96403.09;;;18.45;93.49
53719;BME280;39616;48.872;9.390;2023-10-19T10:06:16;96395.63;;;18.46;93.21
53719;BME280;39616;48.872;9.390;2023-10-19T10:08:48;96403.81;;;18.81;91.83
53719;BME280;39616;48.872;9.390;2023-10-19T10:13:50;96400.72;;;18.51;92.15
53719;BME280;39616;48.872;9.390;2023-10-19T10:16:23;96390.53;;;18.44;94.01
53719;BME280;39616;48.872;9.390;2023-10-19T10:18:56;96392.50;;;18.33;95.91
53719;BME280;39616;48.872;9.390;2023-10-19T10:21:29;96398.81;;;18.08;97.87
53719;BME280;39616;48.872;9.390;2023-10-19T10:24:03;96390.16;;;18.03;98.80
53719;BME280;39616;48.872;9.390;2023-10-19T10:26:59;96390.16;;;18.06;96.36
53719;BME280;39616;48.872;9.390;2023-10-19T10:29:33;96391.75;;;17.79;98.56
53719;BME280;39616;48.872;9.390;2023-10-19T10:32:03;96387.38;;;17.74;99.42
53719;BME280;39616;48.872;9.390;2023-10-19T10:37:13;96371.38;;;17.87;98.08
53719;BME280;39616;48.872;9.390;2023-10-19T10:39:44;96378.78;;;17.72;100.00
53719;BME280;39616;48.872;9.390;2023-10-19T10:42:16;96378.34;;;17.59;100.00
53719;BME280;39616;48.872;9.390;2023-10-19T10:44:47;96381.13;;;17.74;100.00
53719;BME280;39616;48.872;9.390;2023-10-19T10:47:21;96375.31;;;17.90;100.00
53719;BME280;39616;48.872;9.390;2023-10-19T10:49:59;96378.00;;;18.07;100.00
53719;BME280;39616;48.872;9.390;2023-10-19T10:52:36;96373.31;;;18.22;99.09
53719;BME280;39616;48.872;9.390;2023-10-19T10:55:09;96371.31;;;18.33;96.48
53719;BME280;39616;48.872;9.390;2023-10-19T10:57:43;96373.28;;;18.47;93.35
53719;BME280;39616;48.872;9.390;2023-10-19T11:00:15;96378.38;;;18.45;95.92
53719;BME280;39616;48.872;9.390;2023-10-19T11:02:47;96369.75;;;18.40;96.61
53719;BME280;39616;48.872;9.390;2023-10-19T11:05:20;96372.50;;;18.29;94.55
53719;BME280;39616;48.872;9.390;2023-10-19T11:10:44;96380.75;;;18.04;98.17
53719;BME280;39616;48.872;9.390;2023-10-19T11:13:23;96376.09;;;17.97;98.65
53719;BME280;39616;48.872;9.390;2023-10-19T11:15:55;96378.81;;;17.94;100.00
53719;BME280;39616;48.872;9.390;2023-10-19T11:18:38;96383.91;;;17.88;100.00
53719;BME280;39616;48.872;9.390;2023-10-19T11:21:10;96382.72;;;17.82;100.00
53719;BME280;39616;48.872;9.390;2023-10-19T11:23:44;96384.28;;;17.76;100.00
53719;BME280;39616;48.872;9.390;2023-10-19T11:26:23;96388.94;;;17.68;100.00
53719;BME280;39616;48.872;9.390;2023-10-19T11:29:00;96387.75;;;17.66;100.00
53719;BME280;39616;48.872;9.390;2023-10-19T11:31:30;96384.63;;;17.53;100.00
53719;BME280;39616;48.872;9.390;2023-10-19T11:34:07;96385.75;;;17.41;100.00
53719;BME280;39616;48.872;9.390;2023-10-19T11:36:38;96378.34;;;17.38;100.00
53719;BME280;39616;48.872;9.390;2023-10-19T11:39:09;96383.00;;;17.23;100.00
53719;BME280;39616;48.872;9.390;2023-10-19T11:41:42;96388.00;;;17.03;100.00
53719;BME280;39616;48.872;9.390;2023-10-19T11:44:12;96387.50;;;16.80;100.00
53719;BME280;39616;48.872;9.390;2023-10-19T11:46:43;96382.31;;;16.67;100.00
53719;BME280;39616;48.872;9.390;2023-10-19T11:49:14;96387.00;;;16.63;100.00
53719;BME280;39616;48.872;9.390;2023-10-19T11:51:44;96389.22;;;16.43;100.00
53719;BME280;39616;48.872;9.390;2023-10-19T11:54:14;96389.53;;;16.31;100.00
53719;BME280;39616;48.872;9.390;2023-10-19T11:56:46;96386.69;;;16.13;100.00
53719;BME280;39616;48.872;9.390;2023-10-19T11:59:16;96388.88;;;15.97;100.00
53719;BME280;39616;48.872;9.390;2023-10-19T12:01:46;96380.97;;;15.85;100.00
53719;BME280;39616;48.872;9.390;2023-10-19T12:04:17;96360.22;;;15.77;100.00
53719;BME280;39616;48.872;9.390;2023-10-19T12:06:48;96360.94;;;15.70;100.00
53719;BME280;39616;48.872;9.390;2023-10-19T12:09:18;96372.56;;;15.63;100.00
53719;BME280;39616;48.872;9.390;2023-10-19T12:11:54;96364.31;;;15.56;100.00
53719;BME280;39616;48.872;9.390;2023-10-19T12:14:25;96359.59;;;15.53;100.00
53719;BME280;39616;48.872;9.390;2023-10-19T12:16:55;96352.53;;;15.49;100.00
53719;BME280;39616;48.872;9.390;2023-10-19T12:19:25;96345.84;;;15.46;100.00
53719;BME280;39616;48.872;9.390;2023-10-19T12:21:56;96341.19;;;15.43;100.00
53719;BME280;39616;48.872;9.390;2023-10-19T12:24:27;96339.63;;;15.45;100.00
53719;BME280;39616;48.872;9.390;2023-10-19T12:26:59;96326.34;;;15.44;100.00
53719;BME280;39616;48.872;9.390;2023-10-19T12:29:29;96316.59;;;15.43;100.00
53719;BME280;39616;48.872;9.390;2023-10-19T12:32:01;96321.63;;;15.41;100.00
53719;BME280;39616;48.872;9.390;2023-10-19T12:34:32;96320.84;;;15.40;100.00
53719;BME280;39616;48.872;9.390;2023-10-19T12:37:03;96318.91;;;15.41;100.00
53719;BME280;39616;48.872;9.390;2023-10-19T12:39:34;96315.38;;;15.40;100.00
53719;BME280;39616;48.872;9.390;2023-10-19T12:42:15;96312.97;;;15.35;100.00
53719;BME280;39616;48.872;9.390;2023-10-19T12:44:46;96322.78;;;15.36;100.00
53719;BME280;39616;48.872;9.390;2023-10-19T12:47:16;96304.44;;;15.37;100.00
53719;BME280;39616;48.872;9.390;2023-10-19T12:49:47;96311.47;;;15.38;100.00
53719;BME280;39616;48.872;9.390;2023-10-19T12:52:18;96308.31;;;15.32;100.00
53719;BME280;39616;48.872;9.390;2023-10-19T12:54:48;96298.47;;;15.28;100.00
53719;BME280;39616;48.872;9.390;2023-10-19T12:57:21;96294.63;;;15.29;100.00
53719;BME280;39616;48.872;9.390;2023-10-19T12:59:53;96292.22;;;15.23;100.00
53719;BME280;39616;48.872;9.390;2023-10-19T13:02:24;96291.75;;;15.14;100.00
53719;BME280;39616;48.872;9.390;2023-10-19T13:04:54;96287.78;;;15.08;100.00
53719;BME280;39616;48.872;9.390;2023-10-19T13:07:25;96300.56;;;15.01;100.00
53719;BME280;39616;48.872;9.390;2023-10-19T13:09:56;96302.09;;;14.98;100.00
53719;BME280;39616;48.872;9.390;2023-10-19T13:12:27;96295.81;;;14.94;100.00
53719;BME280;39616;48.872;9.390;2023-10-19T13:14:58;96287.22;;;14.92;100.00
53719;BME280;39616;48.872;9.390;2023-10-19T13:17:29;96288.06;;;14.96;100.00
53719;BME280;39616;48.872;9.390;2023-10-19T13:20:00;96291.91;;;14.91;100.00
53719;BME280;39616;48.872;9.390;2023-10-19T13:22:31;96284.47;;;14.88;100.00
53719;BME280;39616;48.872;9.390;2023-10-19T13:25:04;96281.31;;;14.86;100.00